Follett, Texas
Current Conditions -  °F | °C
As of 3:53 PM on Friday 24 Oct 2014 (Local Time) from KGAG Reporting Station
Clear Clear  
Wind Chill: 88°   Ceiling: Unl
Heat Index: 88°   Visibility: 10mi
Dew Point: 54°   Wind: 6mph
Humidity: 31%   Direction: 240°WSW
Pressure: 30.02"   Gusts: NA
Location:  36.43°N, 100.14°W
Report Text: KGAG 242053Z AUTO 24005KT 10SM CLR 31/12 A3002 RMK AO2 SLP141 T03110122 56020
Loading
Personal Weather Stations






























Interactive Weather Map
Tropical Storm Tracking
New forecast layout! Learn more

10-Day Weather Forecast

Advertisements
Track Severe Weather on mobile